CheckWX is a tool to help pilots better visualize weather data.  It is not intended as a substitute for an official pre-flight weather briefing.

04:42:33 UTC

UACK TAF
Kokshetau
Kokshetau, Kazakhstan
TAF AMD UACK 230243Z 2303/2312 VRB02MPS 5000 BR BKN015 OVC100 TEMPO 2303/2305 2100 BR BKN004 BKN006 BECMG 2305/2307 9999 NSW SCT020

Mar-23@
03:00 UTC

Mar-23 @ 03:00 UTC

Mar-23@
05:00 UTC

Mar-23 @ 05:00 UTC

TAF AMD UACK 230243Z 2303/2312 VRB02MPS 5000 BR BKN015 OVC100
Wind
  • Variable at 4 KTS
Conditions
Mist
Cloud Levels
  • Broken at 1,500' AGL
  • Overcast at 10,000' AGL

Mar-23@
03:00 UTC

Mar-23 @ 03:00 UTC

Mar-23@
05:00 UTC

Mar-23 @ 05:00 UTC

TEMPO 2303/2305 2100 BR BKN004 BKN006

Temporary

Temporary Changes expected for less than half the time period

Conditions
Mist
Cloud Levels
  • Broken at 400' AGL
  • Broken at 600' AGL

Mar-23@
05:00 UTC

Mar-23 @ 05:00 UTC

Mar-23@
12:00 UTC

Mar-23 @ 12:00 UTC

BECMG 2305/2307 9999 NSW SCT020

Becoming

Becoming Conditions expected by Sat, Mar 23, 2019 @ 07:00 UTC

Wind
  • Variable at 4 KTS
Conditions
No significant weather
Cloud Levels
  • Scattered at 2,000' AGL